sensor_id;sensor_type;location;lat;lon;timestamp;P1;durP1;ratioP1;P2;durP2;ratioP2
64291;SDS011;50628;51.008;13.658;2023-07-20T00:00:17;3.90;;;2.17;;
64291;SDS011;50628;51.008;13.658;2023-07-20T00:05:21;7.57;;;2.70;;
64291;SDS011;50628;51.008;13.658;2023-07-20T00:10:25;5.90;;;1.67;;
64291;SDS011;50628;51.008;13.658;2023-07-20T00:15:26;3.35;;;1.30;;
64291;SDS011;50628;51.008;13.658;2023-07-20T00:20:30;3.03;;;1.33;;
64291;SDS011;50628;51.008;13.658;2023-07-20T00:25:32;2.63;;;1.40;;
64291;SDS011;50628;51.008;13.658;2023-07-20T00:30:34;6.40;;;1.38;;
64291;SDS011;50628;51.008;13.658;2023-07-20T00:35:38;4.72;;;1.02;;
64291;SDS011;50628;51.008;13.658;2023-07-20T00:40:40;3.35;;;1.83;;
64291;SDS011;50628;51.008;13.658;2023-07-20T00:45:42;1.40;;;1.10;;
64291;SDS011;50628;51.008;13.658;2023-07-20T00:50:46;2.20;;;0.68;;
64291;SDS011;50628;51.008;13.658;2023-07-20T00:55:49;3.50;;;1.35;;
64291;SDS011;50628;51.008;13.658;2023-07-20T01:00:51;4.45;;;2.00;;
64291;SDS011;50628;51.008;13.658;2023-07-20T01:05:57;3.80;;;1.85;;
64291;SDS011;50628;51.008;13.658;2023-07-20T01:11:10;4.63;;;1.90;;
64291;SDS011;50628;51.008;13.658;2023-07-20T01:16:17;5.97;;;2.03;;
64291;SDS011;50628;51.008;13.658;2023-07-20T01:21:22;2.08;;;1.80;;
64291;SDS011;50628;51.008;13.658;2023-07-20T01:26:37;4.40;;;2.05;;
64291;SDS011;50628;51.008;13.658;2023-07-20T01:31:56;4.45;;;2.00;;
64291;SDS011;50628;51.008;13.658;2023-07-20T01:36:59;3.92;;;2.05;;
64291;SDS011;50628;51.008;13.658;2023-07-20T01:42:02;4.65;;;2.30;;
64291;SDS011;50628;51.008;13.658;2023-07-20T01:47:06;4.38;;;2.30;;
64291;SDS011;50628;51.008;13.658;2023-07-20T01:52:08;9.07;;;2.95;;
64291;SDS011;50628;51.008;13.658;2023-07-20T01:57:10;5.63;;;2.75;;
64291;SDS011;50628;51.008;13.658;2023-07-20T02:02:13;9.60;;;4.40;;
64291;SDS011;50628;51.008;13.658;2023-07-20T02:07:15;3.70;;;2.85;;
64291;SDS011;50628;51.008;13.658;2023-07-20T02:12:17;8.00;;;3.38;;
64291;SDS011;50628;51.008;13.658;2023-07-20T02:17:20;7.95;;;3.47;;
64291;SDS011;50628;51.008;13.658;2023-07-20T02:22:22;5.28;;;3.70;;
64291;SDS011;50628;51.008;13.658;2023-07-20T02:27:24;5.95;;;3.50;;
64291;SDS011;50628;51.008;13.658;2023-07-20T02:32:36;7.20;;;3.85;;
64291;SDS011;50628;51.008;13.658;2023-07-20T02:37:38;5.50;;;3.30;;
64291;SDS011;50628;51.008;13.658;2023-07-20T02:42:40;6.82;;;3.55;;
64291;SDS011;50628;51.008;13.658;2023-07-20T02:47:43;6.13;;;3.75;;
64291;SDS011;50628;51.008;13.658;2023-07-20T02:52:45;8.82;;;3.75;;
64291;SDS011;50628;51.008;13.658;2023-07-20T02:57:47;7.15;;;4.35;;
64291;SDS011;50628;51.008;13.658;2023-07-20T03:02:50;5.35;;;3.92;;
64291;SDS011;50628;51.008;13.658;2023-07-20T03:07:55;8.90;;;4.13;;
64291;SDS011;50628;51.008;13.658;2023-07-20T03:12:57;6.22;;;3.75;;
64291;SDS011;50628;51.008;13.658;2023-07-20T03:18:01;6.85;;;4.07;;
64291;SDS011;50628;51.008;13.658;2023-07-20T03:23:04;7.25;;;4.25;;
64291;SDS011;50628;51.008;13.658;2023-07-20T03:28:06;11.23;;;4.95;;
64291;SDS011;50628;51.008;13.658;2023-07-20T03:33:09;7.50;;;4.60;;
64291;SDS011;50628;51.008;13.658;2023-07-20T03:38:11;15.38;;;5.28;;
64291;SDS011;50628;51.008;13.658;2023-07-20T03:43:13;13.15;;;4.95;;
64291;SDS011;50628;51.008;13.658;2023-07-20T03:48:16;6.38;;;4.72;;
64291;SDS011;50628;51.008;13.658;2023-07-20T03:53:19;9.13;;;4.03;;
64291;SDS011;50628;51.008;13.658;2023-07-20T03:58:21;9.68;;;3.90;;
64291;SDS011;50628;51.008;13.658;2023-07-20T04:03:25;9.82;;;3.90;;
64291;SDS011;50628;51.008;13.658;2023-07-20T04:08:27;4.72;;;3.60;;
64291;SDS011;50628;51.008;13.658;2023-07-20T04:13:29;7.80;;;3.72;;
64291;SDS011;50628;51.008;13.658;2023-07-20T04:18:34;6.13;;;4.30;;
64291;SDS011;50628;51.008;13.658;2023-07-20T04:23:36;7.70;;;4.93;;
64291;SDS011;50628;51.008;13.658;2023-07-20T04:28:39;18.20;;;7.47;;
64291;SDS011;50628;51.008;13.658;2023-07-20T04:33:45;16.73;;;6.30;;
64291;SDS011;50628;51.008;13.658;2023-07-20T04:38:47;18.05;;;7.90;;
64291;SDS011;50628;51.008;13.658;2023-07-20T04:43:52;35.55;;;9.48;;
64291;SDS011;50628;51.008;13.658;2023-07-20T04:49:06;13.48;;;6.63;;
64291;SDS011;50628;51.008;13.658;2023-07-20T04:54:12;13.70;;;6.60;;
64291;SDS011;50628;51.008;13.658;2023-07-20T04:59:15;9.77;;;6.10;;
64291;SDS011;50628;51.008;13.658;2023-07-20T05:04:19;15.98;;;6.85;;
64291;SDS011;50628;51.008;13.658;2023-07-20T05:09:21;8.45;;;5.70;;
64291;SDS011;50628;51.008;13.658;2023-07-20T05:14:23;19.90;;;6.75;;
64291;SDS011;50628;51.008;13.658;2023-07-20T05:19:27;9.30;;;6.60;;
64291;SDS011;50628;51.008;13.658;2023-07-20T05:24:29;6.47;;;4.88;;
64291;SDS011;50628;51.008;13.658;2023-07-20T05:29:31;5.25;;;4.55;;
64291;SDS011;50628;51.008;13.658;2023-07-20T05:34:34;14.02;;;6.10;;
64291;SDS011;50628;51.008;13.658;2023-07-20T05:39:36;8.88;;;3.60;;
64291;SDS011;50628;51.008;13.658;2023-07-20T05:44:38;9.38;;;4.32;;
64291;SDS011;50628;51.008;13.658;2023-07-20T05:49:42;6.30;;;3.28;;
64291;SDS011;50628;51.008;13.658;2023-07-20T05:54:44;8.90;;;3.63;;
64291;SDS011;50628;51.008;13.658;2023-07-20T05:59:46;5.43;;;2.70;;
64291;SDS011;50628;51.008;13.658;2023-07-20T06:04:49;6.20;;;4.00;;
64291;SDS011;50628;51.008;13.658;2023-07-20T06:09:51;9.48;;;4.53;;
64291;SDS011;50628;51.008;13.658;2023-07-20T06:14:53;6.70;;;3.38;;
64291;SDS011;50628;51.008;13.658;2023-07-20T06:19:57;7.07;;;3.75;;
64291;SDS011;50628;51.008;13.658;2023-07-20T06:24:58;6.60;;;4.53;;
64291;SDS011;50628;51.008;13.658;2023-07-20T06:30:00;8.10;;;6.05;;
64291;SDS011;50628;51.008;13.658;2023-07-20T06:35:04;11.10;;;5.85;;
64291;SDS011;50628;51.008;13.658;2023-07-20T06:40:07;4.90;;;4.22;;
64291;SDS011;50628;51.008;13.658;2023-07-20T06:45:10;10.90;;;7.22;;
64291;SDS011;50628;51.008;13.658;2023-07-20T06:50:13;7.97;;;5.95;;
64291;SDS011;50628;51.008;13.658;2023-07-20T06:55:15;6.90;;;4.75;;
64291;SDS011;50628;51.008;13.658;2023-07-20T07:00:17;9.40;;;4.97;;
64291;SDS011;50628;51.008;13.658;2023-07-20T07:05:21;5.28;;;4.70;;
64291;SDS011;50628;51.008;13.658;2023-07-20T07:10:23;7.75;;;4.80;;
64291;SDS011;50628;51.008;13.658;2023-07-20T07:15:25;8.45;;;5.97;;
64291;SDS011;50628;51.008;13.658;2023-07-20T07:20:29;5.25;;;4.05;;
64291;SDS011;50628;51.008;13.658;2023-07-20T07:25:31;5.40;;;4.90;;
64291;SDS011;50628;51.008;13.658;2023-07-20T07:30:32;5.82;;;5.32;;
64291;SDS011;50628;51.008;13.658;2023-07-20T07:35:36;8.15;;;5.05;;
64291;SDS011;50628;51.008;13.658;2023-07-20T07:40:38;5.68;;;4.82;;
64291;SDS011;50628;51.008;13.658;2023-07-20T07:45:39;7.35;;;6.15;;
64291;SDS011;50628;51.008;13.658;2023-07-20T07:50:43;5.82;;;4.38;;
64291;SDS011;50628;51.008;13.658;2023-07-20T07:55:45;3.92;;;2.90;;
64291;SDS011;50628;51.008;13.658;2023-07-20T08:00:48;4.32;;;2.28;;
64291;SDS011;50628;51.008;13.658;2023-07-20T08:05:53;3.95;;;2.50;;
64291;SDS011;50628;51.008;13.658;2023-07-20T08:10:55;6.35;;;3.50;;
64291;SDS011;50628;51.008;13.658;2023-07-20T08:15:57;4.30;;;3.95;;
64291;SDS011;50628;51.008;13.658;2023-07-20T08:21:00;7.07;;;5.03;;
64291;SDS011;50628;51.008;13.658;2023-07-20T08:26:03;3.95;;;3.65;;
64291;SDS011;50628;51.008;13.658;2023-07-20T08:31:05;4.88;;;4.47;;
64291;SDS011;50628;51.008;13.658;2023-07-20T08:36:09;5.15;;;3.85;;
64291;SDS011;50628;51.008;13.658;2023-07-20T08:41:10;6.35;;;3.90;;
64291;SDS011;50628;51.008;13.658;2023-07-20T08:46:14;3.13;;;2.83;;
64291;SDS011;50628;51.008;13.658;2023-07-20T08:51:18;5.85;;;2.90;;
64291;SDS011;50628;51.008;13.658;2023-07-20T08:56:21;3.88;;;2.22;;
64291;SDS011;50628;51.008;13.658;2023-07-20T09:01:25;2.70;;;2.50;;
64291;SDS011;50628;51.008;13.658;2023-07-20T09:06:30;7.57;;;2.95;;
64291;SDS011;50628;51.008;13.658;2023-07-20T09:11:35;8.82;;;3.97;;
64291;SDS011;50628;51.008;13.658;2023-07-20T09:16:46;3.92;;;3.63;;
64291;SDS011;50628;51.008;13.658;2023-07-20T09:21:51;4.00;;;3.70;;
64291;SDS011;50628;51.008;13.658;2023-07-20T09:26:53;6.13;;;3.78;;
64291;SDS011;50628;51.008;13.658;2023-07-20T09:31:58;4.28;;;3.88;;
64291;SDS011;50628;51.008;13.658;2023-07-20T09:37:03;4.97;;;3.67;;
64291;SDS011;50628;51.008;13.658;2023-07-20T09:42:05;4.47;;;3.45;;
64291;SDS011;50628;51.008;13.658;2023-07-20T09:47:08;5.35;;;4.15;;
64291;SDS011;50628;51.008;13.658;2023-07-20T09:52:11;4.15;;;2.03;;
64291;SDS011;50628;51.008;13.658;2023-07-20T09:57:15;2.70;;;1.80;;
64291;SDS011;50628;51.008;13.658;2023-07-20T10:02:19;3.00;;;1.92;;
64291;SDS011;50628;51.008;13.658;2023-07-20T10:07:25;2.78;;;1.30;;
64291;SDS011;50628;51.008;13.658;2023-07-20T10:12:29;2.60;;;1.30;;
64291;SDS011;50628;51.008;13.658;2023-07-20T10:17:32;1.95;;;1.08;;
64291;SDS011;50628;51.008;13.658;2023-07-20T10:22:36;1.02;;;0.95;;
64291;SDS011;50628;51.008;13.658;2023-07-20T10:27:39;2.30;;;2.10;;
64291;SDS011;50628;51.008;13.658;2023-07-20T10:32:42;2.63;;;2.40;;
64291;SDS011;50628;51.008;13.658;2023-07-20T10:37:49;4.03;;;3.65;;
64291;SDS011;50628;51.008;13.658;2023-07-20T10:42:56;5.53;;;3.20;;
64291;SDS011;50628;51.008;13.658;2023-07-20T10:47:59;3.63;;;2.25;;
64291;SDS011;50628;51.008;13.658;2023-07-20T10:53:06;4.38;;;2.50;;
64291;SDS011;50628;51.008;13.658;2023-07-20T10:58:12;3.42;;;3.13;;
64291;SDS011;50628;51.008;13.658;2023-07-20T11:03:22;5.05;;;3.15;;
64291;SDS011;50628;51.008;13.658;2023-07-20T11:08:42;8.18;;;4.60;;
64291;SDS011;50628;51.008;13.658;2023-07-20T11:13:53;6.40;;;4.70;;
64291;SDS011;50628;51.008;13.658;2023-07-20T11:18:56;7.20;;;4.30;;
64291;SDS011;50628;51.008;13.658;2023-07-20T11:24:02;6.07;;;5.57;;
64291;SDS011;50628;51.008;13.658;2023-07-20T11:29:04;5.50;;;5.00;;
64291;SDS011;50628;51.008;13.658;2023-07-20T11:34:07;5.07;;;4.70;;
64291;SDS011;50628;51.008;13.658;2023-07-20T11:39:14;6.53;;;5.93;;
64291;SDS011;50628;51.008;13.658;2023-07-20T11:44:16;4.85;;;3.75;;
64291;SDS011;50628;51.008;13.658;2023-07-20T11:49:18;3.67;;;3.40;;
64291;SDS011;50628;51.008;13.658;2023-07-20T11:54:21;5.95;;;3.22;;
64291;SDS011;50628;51.008;13.658;2023-07-20T11:59:24;5.85;;;2.95;;
64291;SDS011;50628;51.008;13.658;2023-07-20T12:04:26;9.93;;;2.95;;
64291;SDS011;50628;51.008;13.658;2023-07-20T12:09:29;2.67;;;2.47;;
64291;SDS011;50628;51.008;13.658;2023-07-20T12:14:32;4.13;;;2.70;;
64291;SDS011;50628;51.008;13.658;2023-07-20T12:19:37;4.90;;;4.15;;
64291;SDS011;50628;51.008;13.658;2023-07-20T12:24:41;8.02;;;3.72;;
64291;SDS011;50628;51.008;13.658;2023-07-20T12:29:43;5.57;;;4.90;;
64291;SDS011;50628;51.008;13.658;2023-07-20T12:34:45;5.95;;;5.30;;
64291;SDS011;50628;51.008;13.658;2023-07-20T12:39:50;6.97;;;5.00;;
64291;SDS011;50628;51.008;13.658;2023-07-20T12:44:51;5.93;;;4.28;;
64291;SDS011;50628;51.008;13.658;2023-07-20T12:49:54;4.80;;;4.40;;
64291;SDS011;50628;51.008;13.658;2023-07-20T12:54:57;5.13;;;3.92;;
64291;SDS011;50628;51.008;13.658;2023-07-20T13:00:00;4.63;;;4.22;;
64291;SDS011;50628;51.008;13.658;2023-07-20T13:05:03;6.65;;;5.10;;
64291;SDS011;50628;51.008;13.658;2023-07-20T13:10:07;5.85;;;5.32;;
64291;SDS011;50628;51.008;13.658;2023-07-20T13:15:10;4.97;;;3.17;;
64291;SDS011;50628;51.008;13.658;2023-07-20T13:20:12;3.55;;;3.25;;
64291;SDS011;50628;51.008;13.658;2023-07-20T13:25:16;5.22;;;2.70;;
64291;SDS011;50628;51.008;13.658;2023-07-20T13:30:18;2.78;;;2.42;;
64291;SDS011;50628;51.008;13.658;2023-07-20T13:35:21;3.20;;;2.20;;
64291;SDS011;50628;51.008;13.658;2023-07-20T13:40:25;1.98;;;1.10;;
64291;SDS011;50628;51.008;13.658;2023-07-20T13:45:26;1.25;;;0.95;;
64291;SDS011;50628;51.008;13.658;2023-07-20T13:50:28;3.70;;;1.58;;
64291;SDS011;50628;51.008;13.658;2023-07-20T13:55:32;1.30;;;1.20;;
64291;SDS011;50628;51.008;13.658;2023-07-20T14:00:36;1.00;;;1.00;;
64291;SDS011;50628;51.008;13.658;2023-07-20T14:05:39;7.78;;;1.73;;
64291;SDS011;50628;51.008;13.658;2023-07-20T14:10:42;3.67;;;1.45;;
64291;SDS011;50628;51.008;13.658;2023-07-20T14:15:44;2.13;;;1.45;;
64291;SDS011;50628;51.008;13.658;2023-07-20T14:20:46;2.75;;;1.50;;
64291;SDS011;50628;51.008;13.658;2023-07-20T14:25:49;2.58;;;0.90;;
64291;SDS011;50628;51.008;13.658;2023-07-20T14:30:51;2.97;;;0.70;;
64291;SDS011;50628;51.008;13.658;2023-07-20T14:35:54;0.98;;;0.82;;
64291;SDS011;50628;51.008;13.658;2023-07-20T14:40:57;1.52;;;0.70;;
64291;SDS011;50628;51.008;13.658;2023-07-20T14:46:00;2.58;;;1.10;;
64291;SDS011;50628;51.008;13.658;2023-07-20T14:51:02;1.38;;;0.85;;
64291;SDS011;50628;51.008;13.658;2023-07-20T14:56:06;3.90;;;0.80;;
64291;SDS011;50628;51.008;13.658;2023-07-20T15:01:07;1.77;;;0.68;;
64291;SDS011;50628;51.008;13.658;2023-07-20T15:06:10;0.95;;;0.50;;
64291;SDS011;50628;51.008;13.658;2023-07-20T15:11:13;1.85;;;0.70;;
64291;SDS011;50628;51.008;13.658;2023-07-20T15:16:15;0.93;;;0.60;;
64291;SDS011;50628;51.008;13.658;2023-07-20T15:21:17;2.70;;;0.90;;
64291;SDS011;50628;51.008;13.658;2023-07-20T15:26:20;0.77;;;0.45;;
64291;SDS011;50628;51.008;13.658;2023-07-20T15:31:22;1.23;;;1.13;;
64291;SDS011;50628;51.008;13.658;2023-07-20T15:36:26;1.80;;;0.70;;
64291;SDS011;50628;51.008;13.658;2023-07-20T15:41:29;2.55;;;0.70;;
64291;SDS011;50628;51.008;13.658;2023-07-20T15:46:44;0.90;;;0.32;;
64291;SDS011;50628;51.008;13.658;2023-07-20T15:51:47;0.70;;;0.50;;
64291;SDS011;50628;51.008;13.658;2023-07-20T15:56:51;1.45;;;0.40;;
64291;SDS011;50628;51.008;13.658;2023-07-20T16:01:53;0.80;;;0.40;;
64291;SDS011;50628;51.008;13.658;2023-07-20T16:06:55;0.70;;;0.20;;
64291;SDS011;50628;51.008;13.658;2023-07-20T16:11:59;0.20;;;0.20;;
64291;SDS011;50628;51.008;13.658;2023-07-20T16:17:01;1.13;;;0.77;;
64291;SDS011;50628;51.008;13.658;2023-07-20T16:22:03;3.30;;;0.30;;
64291;SDS011;50628;51.008;13.658;2023-07-20T16:27:07;1.88;;;0.60;;
64291;SDS011;50628;51.008;13.658;2023-07-20T16:32:09;4.40;;;1.35;;
64291;SDS011;50628;51.008;13.658;2023-07-20T16:37:11;6.30;;;2.35;;
64291;SDS011;50628;51.008;13.658;2023-07-20T16:42:14;0.40;;;0.30;;
64291;SDS011;50628;51.008;13.658;2023-07-20T16:47:16;0.35;;;0.20;;
64291;SDS011;50628;51.008;13.658;2023-07-20T16:52:17;1.25;;;0.30;;
64291;SDS011;50628;51.008;13.658;2023-07-20T16:57:21;1.40;;;0.45;;
64291;SDS011;50628;51.008;13.658;2023-07-20T17:02:23;1.73;;;0.60;;
64291;SDS011;50628;51.008;13.658;2023-07-20T17:07:25;1.35;;;0.52;;
64291;SDS011;50628;51.008;13.658;2023-07-20T17:12:29;3.03;;;0.70;;
64291;SDS011;50628;51.008;13.658;2023-07-20T17:17:30;2.80;;;0.50;;
64291;SDS011;50628;51.008;13.658;2023-07-20T17:22:32;0.45;;;0.28;;
64291;SDS011;50628;51.008;13.658;2023-07-20T17:27:36;1.23;;;0.32;;
64291;SDS011;50628;51.008;13.658;2023-07-20T17:32:37;1.48;;;0.47;;
64291;SDS011;50628;51.008;13.658;2023-07-20T17:37:39;1.67;;;0.50;;
64291;SDS011;50628;51.008;13.658;2023-07-20T17:42:43;1.70;;;0.50;;
64291;SDS011;50628;51.008;13.658;2023-07-20T17:47:45;1.15;;;0.40;;
64291;SDS011;50628;51.008;13.658;2023-07-20T17:52:47;0.88;;;0.45;;
64291;SDS011;50628;51.008;13.658;2023-07-20T17:57:50;0.50;;;0.50;;
64291;SDS011;50628;51.008;13.658;2023-07-20T18:02:52;0.80;;;0.50;;
64291;SDS011;50628;51.008;13.658;2023-07-20T18:07:54;2.70;;;0.52;;
64291;SDS011;50628;51.008;13.658;2023-07-20T18:12:57;1.10;;;0.47;;
64291;SDS011;50628;51.008;13.658;2023-07-20T18:17:59;0.40;;;0.40;;
64291;SDS011;50628;51.008;13.658;2023-07-20T18:23:01;2.33;;;0.65;;
64291;SDS011;50628;51.008;13.658;2023-07-20T18:28:05;1.45;;;0.60;;
64291;SDS011;50628;51.008;13.658;2023-07-20T18:33:07;3.08;;;0.73;;
64291;SDS011;50628;51.008;13.658;2023-07-20T18:38:09;5.82;;;0.60;;
64291;SDS011;50628;51.008;13.658;2023-07-20T18:43:14;2.53;;;0.70;;
64291;SDS011;50628;51.008;13.658;2023-07-20T18:48:17;1.95;;;0.52;;
64291;SDS011;50628;51.008;13.658;2023-07-20T18:53:18;0.88;;;0.50;;
64291;SDS011;50628;51.008;13.658;2023-07-20T18:58:22;2.25;;;0.60;;
64291;SDS011;50628;51.008;13.658;2023-07-20T19:03:23;1.38;;;1.00;;
64291;SDS011;50628;51.008;13.658;2023-07-20T19:08:26;2.05;;;0.60;;
64291;SDS011;50628;51.008;13.658;2023-07-20T19:13:29;0.75;;;0.50;;
64291;SDS011;50628;51.008;13.658;2023-07-20T19:18:32;0.75;;;0.40;;
64291;SDS011;50628;51.008;13.658;2023-07-20T19:23:34;1.50;;;0.63;;
64291;SDS011;50628;51.008;13.658;2023-07-20T19:28:37;1.27;;;0.98;;
64291;SDS011;50628;51.008;13.658;2023-07-20T19:33:40;1.25;;;0.80;;
64291;SDS011;50628;51.008;13.658;2023-07-20T19:38:42;3.78;;;1.08;;
64291;SDS011;50628;51.008;13.658;2023-07-20T19:43:45;4.25;;;0.80;;
64291;SDS011;50628;51.008;13.658;2023-07-20T19:48:47;0.90;;;0.90;;
64291;SDS011;50628;51.008;13.658;2023-07-20T19:53:49;2.55;;;0.80;;
64291;SDS011;50628;51.008;13.658;2023-07-20T19:58:52;2.15;;;0.75;;
64291;SDS011;50628;51.008;13.658;2023-07-20T20:03:54;3.33;;;1.98;;
64291;SDS011;50628;51.008;13.658;2023-07-20T20:08:57;5.78;;;3.20;;
64291;SDS011;50628;51.008;13.658;2023-07-20T20:14:00;9.32;;;4.28;;
64291;SDS011;50628;51.008;13.658;2023-07-20T20:19:02;4.88;;;2.83;;
64291;SDS011;50628;51.008;13.658;2023-07-20T20:24:05;5.30;;;2.05;;
64291;SDS011;50628;51.008;13.658;2023-07-20T20:29:08;5.55;;;2.10;;
64291;SDS011;50628;51.008;13.658;2023-07-20T20:34:10;2.47;;;1.15;;
64291;SDS011;50628;51.008;13.658;2023-07-20T20:39:12;2.22;;;1.23;;
64291;SDS011;50628;51.008;13.658;2023-07-20T20:44:15;1.77;;;1.10;;
64291;SDS011;50628;51.008;13.658;2023-07-20T20:49:21;4.30;;;1.30;;
64291;SDS011;50628;51.008;13.658;2023-07-20T20:54:23;1.40;;;1.13;;
64291;SDS011;50628;51.008;13.658;2023-07-20T20:59:27;1.20;;;1.10;;
64291;SDS011;50628;51.008;13.658;2023-07-20T21:04:28;1.15;;;1.02;;
64291;SDS011;50628;51.008;13.658;2023-07-20T21:09:30;3.25;;;1.33;;
64291;SDS011;50628;51.008;13.658;2023-07-20T21:14:34;4.07;;;1.65;;
64291;SDS011;50628;51.008;13.658;2023-07-20T21:19:35;6.35;;;1.40;;
64291;SDS011;50628;51.008;13.658;2023-07-20T21:24:37;5.25;;;1.50;;
64291;SDS011;50628;51.008;13.658;2023-07-20T21:29:40;3.22;;;1.50;;
64291;SDS011;50628;51.008;13.658;2023-07-20T21:34:42;2.33;;;1.15;;
64291;SDS011;50628;51.008;13.658;2023-07-20T21:39:44;1.30;;;1.20;;
64291;SDS011;50628;51.008;13.658;2023-07-20T21:44:47;2.10;;;1.40;;
64291;SDS011;50628;51.008;13.658;2023-07-20T21:49:49;1.80;;;1.33;;
64291;SDS011;50628;51.008;13.658;2023-07-20T21:54:51;2.22;;;1.73;;
64291;SDS011;50628;51.008;13.658;2023-07-20T21:59:55;2.97;;;1.05;;
64291;SDS011;50628;51.008;13.658;2023-07-20T22:04:56;3.43;;;1.37;;
64291;SDS011;50628;51.008;13.658;2023-07-20T22:09:58;3.00;;;1.50;;
64291;SDS011;50628;51.008;13.658;2023-07-20T22:15:02;1.52;;;1.13;;
64291;SDS011;50628;51.008;13.658;2023-07-20T22:20:05;1.42;;;1.27;;
64291;SDS011;50628;51.008;13.658;2023-07-20T22:25:08;1.03;;;0.90;;
64291;SDS011;50628;51.008;13.658;2023-07-20T22:30:12;2.00;;;1.30;;
64291;SDS011;50628;51.008;13.658;2023-07-20T22:35:14;1.23;;;1.15;;
64291;SDS011;50628;51.008;13.658;2023-07-20T22:40:16;1.57;;;1.40;;
64291;SDS011;50628;51.008;13.658;2023-07-20T22:45:20;1.25;;;1.25;;
64291;SDS011;50628;51.008;13.658;2023-07-20T22:50:22;2.58;;;0.85;;
64291;SDS011;50628;51.008;13.658;2023-07-20T22:55:25;4.40;;;1.30;;
64291;SDS011;50628;51.008;13.658;2023-07-20T23:00:28;1.85;;;0.90;;
64291;SDS011;50628;51.008;13.658;2023-07-20T23:05:31;3.15;;;1.48;;
64291;SDS011;50628;51.008;13.658;2023-07-20T23:10:33;1.27;;;1.17;;
64291;SDS011;50628;51.008;13.658;2023-07-20T23:15:36;3.57;;;1.07;;
64291;SDS011;50628;51.008;13.658;2023-07-20T23:20:38;2.53;;;1.60;;
64291;SDS011;50628;51.008;13.658;2023-07-20T23:25:40;4.30;;;2.70;;
64291;SDS011;50628;51.008;13.658;2023-07-20T23:30:46;7.20;;;2.80;;
64291;SDS011;50628;51.008;13.658;2023-07-20T23:35:49;2.08;;;1.90;;
64291;SDS011;50628;51.008;13.658;2023-07-20T23:40:51;4.17;;;1.33;;
64291;SDS011;50628;51.008;13.658;2023-07-20T23:45:55;1.27;;;1.00;;
64291;SDS011;50628;51.008;13.658;2023-07-20T23:51:04;1.83;;;1.15;;
64291;SDS011;50628;51.008;13.658;2023-07-20T23:56:08;2.00;;;1.25;;
